Aérodrome :
LOGIN :

S'inscrire | Disclaimer

   EN    FR    IT 

 










Légende :    VFR   VFR Marginal   IFR   IFR Intensif   IFR Très Intensif
Visi : 
Plafond : 
>= 8 km
>= 3000ft
5 à 8 km
1000 à 3000 ft
1500m à 5 km
500 à 1000 ft
800 à 1500m
200 à 500 ft
< 800m
< 200 ft
Symboles :   Orages  Brouillard  Fortes neiges  Fortes précipitations  Vent > 20 kt
SIGMETs :   Divers  Orages  Givrage  Turbulence  Onde Orograph.  Cendres Volcan.






- Altitude de l'aérodrome : 295 ft
- Code IATA : ORN


DAOO - Es senia - Oran

DERNIER METAR :
  • 310600Z VRB02KT CAVOK 19/15 Q1009

METARs EXPIRÉS :
  • 310500Z 35008KT CAVOK 19/15 Q1008
  • 310400Z 01004KT 9999 FEW023 18/16 Q1009

TAF TAF DAOO
Valide du 31 à 06h jusqu'au 01 à 06h UTC


310500Z 3106/0106 35008KT CAVOK
PROB30
TEMPO 3106/3108 3000 BR BKN010
BECMG 3109/3112 26015KT
BECMG 3120/3123 VRB02KT



MET'MAP, la Météo Aéronautique d'un coup d'oeil ! - Copyright ORBIFLY Décembre 2007 - Disclaimer

ORBIFLY MET'MAP TEAM :

Programmation & Développement : Alexandra Zaïnal
Sur une idée originale de : Baudouin d'Aumeries
Assistance à la programmation : Marc-Olivier Méhu
Soutien technique & logistique : Manuel Goepfert

Contact : metmap@orbifly.com




SOURCES & CREDITS :

   NOAA